sensor_id;sensor_type;location;lat;lon;timestamp;pressure;altitude;pressure_sealevel;temperature;humidity
41862;BME280;27537;57.134;-2.136;2024-01-27T00:00:31;101004.53;;;7.22;100.00
41862;BME280;27537;57.134;-2.136;2024-01-27T00:02:58;100999.56;;;7.09;100.00
41862;BME280;27537;57.134;-2.136;2024-01-27T00:05:25;100996.63;;;7.26;100.00
41862;BME280;27537;57.134;-2.136;2024-01-27T00:07:56;100997.44;;;7.28;100.00
41862;BME280;27537;57.134;-2.136;2024-01-27T00:10:23;101004.41;;;7.27;100.00
41862;BME280;27537;57.134;-2.136;2024-01-27T00:12:49;101006.13;;;7.28;100.00
41862;BME280;27537;57.134;-2.136;2024-01-27T00:15:16;101005.00;;;7.40;100.00
41862;BME280;27537;57.134;-2.136;2024-01-27T00:17:44;101007.59;;;7.41;100.00
41862;BME280;27537;57.134;-2.136;2024-01-27T00:20:11;101008.69;;;7.31;100.00
41862;BME280;27537;57.134;-2.136;2024-01-27T00:22:38;101024.88;;;7.47;100.00
41862;BME280;27537;57.134;-2.136;2024-01-27T00:25:05;101016.66;;;7.22;100.00
41862;BME280;27537;57.134;-2.136;2024-01-27T00:27:32;101012.34;;;7.21;100.00
41862;BME280;27537;57.134;-2.136;2024-01-27T00:29:59;101030.19;;;7.41;100.00
41862;BME280;27537;57.134;-2.136;2024-01-27T00:32:26;101041.47;;;7.41;100.00
41862;BME280;27537;57.134;-2.136;2024-01-27T00:34:52;101037.81;;;7.50;100.00
41862;BME280;27537;57.134;-2.136;2024-01-27T00:37:19;101039.56;;;7.50;100.00
41862;BME280;27537;57.134;-2.136;2024-01-27T00:39:46;101033.50;;;7.49;100.00
41862;BME280;27537;57.134;-2.136;2024-01-27T00:42:13;101049.28;;;7.41;100.00
41862;BME280;27537;57.134;-2.136;2024-01-27T00:44:40;101044.94;;;7.42;100.00
41862;BME280;27537;57.134;-2.136;2024-01-27T00:47:07;101026.75;;;7.40;100.00
41862;BME280;27537;57.134;-2.136;2024-01-27T00:49:33;101031.59;;;7.57;100.00
41862;BME280;27537;57.134;-2.136;2024-01-27T00:52:00;101044.03;;;7.45;100.00
41862;BME280;27537;57.134;-2.136;2024-01-27T00:54:27;101026.97;;;7.28;100.00
41862;BME280;27537;57.134;-2.136;2024-01-27T00:56:54;101030.41;;;7.30;100.00
41862;BME280;27537;57.134;-2.136;2024-01-27T00:59:20;101034.66;;;7.34;100.00
41862;BME280;27537;57.134;-2.136;2024-01-27T01:01:47;101048.22;;;7.52;100.00
41862;BME280;27537;57.134;-2.136;2024-01-27T01:04:14;101039.59;;;7.48;100.00
41862;BME280;27537;57.134;-2.136;2024-01-27T01:06:41;101048.25;;;7.49;100.00
41862;BME280;27537;57.134;-2.136;2024-01-27T01:09:07;101043.28;;;7.36;100.00
41862;BME280;27537;57.134;-2.136;2024-01-27T01:11:35;101044.38;;;7.26;100.00
41862;BME280;27537;57.134;-2.136;2024-01-27T01:14:05;101039.88;;;7.34;100.00
41862;BME280;27537;57.134;-2.136;2024-01-27T01:16:32;101041.69;;;7.29;100.00
41862;BME280;27537;57.134;-2.136;2024-01-27T01:18:58;101038.84;;;7.41;100.00
41862;BME280;27537;57.134;-2.136;2024-01-27T01:21:26;101047.78;;;7.30;100.00
41862;BME280;27537;57.134;-2.136;2024-01-27T01:23:53;101038.97;;;7.37;100.00
41862;BME280;27537;57.134;-2.136;2024-01-27T01:26:20;101040.56;;;7.44;100.00
41862;BME280;27537;57.134;-2.136;2024-01-27T01:28:46;101045.91;;;7.36;100.00
41862;BME280;27537;57.134;-2.136;2024-01-27T01:31:13;101052.66;;;7.47;100.00
41862;BME280;27537;57.134;-2.136;2024-01-27T01:33:40;101045.63;;;7.50;100.00
41862;BME280;27537;57.134;-2.136;2024-01-27T01:36:06;101045.19;;;7.30;100.00
41862;BME280;27537;57.134;-2.136;2024-01-27T01:38:33;101055.38;;;7.42;100.00
41862;BME280;27537;57.134;-2.136;2024-01-27T01:41:00;101058.97;;;7.35;100.00
41862;BME280;27537;57.134;-2.136;2024-01-27T01:43:27;101066.44;;;7.53;100.00
41862;BME280;27537;57.134;-2.136;2024-01-27T01:45:53;101056.25;;;7.41;100.00
41862;BME280;27537;57.134;-2.136;2024-01-27T01:48:20;101052.63;;;7.48;100.00
41862;BME280;27537;57.134;-2.136;2024-01-27T01:50:47;101051.91;;;7.40;100.00
41862;BME280;27537;57.134;-2.136;2024-01-27T01:53:15;101044.91;;;7.44;100.00
41862;BME280;27537;57.134;-2.136;2024-01-27T01:55:42;101051.09;;;7.38;100.00
41862;BME280;27537;57.134;-2.136;2024-01-27T01:58:08;101047.84;;;7.27;100.00
41862;BME280;27537;57.134;-2.136;2024-01-27T02:00:35;101053.69;;;7.38;100.00
41862;BME280;27537;57.134;-2.136;2024-01-27T02:03:02;101030.50;;;7.24;100.00
41862;BME280;27537;57.134;-2.136;2024-01-27T02:05:30;101039.44;;;7.12;100.00
41862;BME280;27537;57.134;-2.136;2024-01-27T02:07:57;101033.88;;;7.29;100.00
41862;BME280;27537;57.134;-2.136;2024-01-27T02:10:26;101031.50;;;7.17;100.00
41862;BME280;27537;57.134;-2.136;2024-01-27T02:12:53;101028.84;;;7.21;100.00
41862;BME280;27537;57.134;-2.136;2024-01-27T02:15:19;101026.88;;;7.33;100.00
41862;BME280;27537;57.134;-2.136;2024-01-27T02:17:48;101020.84;;;7.31;100.00
41862;BME280;27537;57.134;-2.136;2024-01-27T02:20:15;101032.00;;;7.37;100.00
41862;BME280;27537;57.134;-2.136;2024-01-27T02:22:41;101014.97;;;7.21;100.00
41862;BME280;27537;57.134;-2.136;2024-01-27T02:25:08;101011.97;;;7.41;100.00
41862;BME280;27537;57.134;-2.136;2024-01-27T02:27:35;101005.16;;;7.34;100.00
41862;BME280;27537;57.134;-2.136;2024-01-27T02:30:02;101012.34;;;7.21;100.00
41862;BME280;27537;57.134;-2.136;2024-01-27T02:32:28;101017.66;;;7.15;100.00
41862;BME280;27537;57.134;-2.136;2024-01-27T02:34:55;101022.78;;;7.21;100.00
41862;BME280;27537;57.134;-2.136;2024-01-27T02:37:22;101025.44;;;7.16;100.00
41862;BME280;27537;57.134;-2.136;2024-01-27T02:39:48;101020.28;;;7.13;100.00
41862;BME280;27537;57.134;-2.136;2024-01-27T02:42:15;101024.31;;;7.31;100.00
41862;BME280;27537;57.134;-2.136;2024-01-27T02:44:42;101021.34;;;7.50;100.00
41862;BME280;27537;57.134;-2.136;2024-01-27T02:47:09;101022.88;;;7.15;100.00
41862;BME280;27537;57.134;-2.136;2024-01-27T02:49:35;101032.78;;;7.41;100.00
41862;BME280;27537;57.134;-2.136;2024-01-27T02:52:02;101041.53;;;7.38;100.00
41862;BME280;27537;57.134;-2.136;2024-01-27T02:54:29;101043.16;;;7.46;100.00
41862;BME280;27537;57.134;-2.136;2024-01-27T02:56:56;101021.09;;;7.17;100.00
41862;BME280;27537;57.134;-2.136;2024-01-27T02:59:23;101046.09;;;7.27;100.00
41862;BME280;27537;57.134;-2.136;2024-01-27T03:01:50;101041.66;;;7.32;100.00
41862;BME280;27537;57.134;-2.136;2024-01-27T03:04:16;101038.59;;;7.55;100.00
41862;BME280;27537;57.134;-2.136;2024-01-27T03:06:43;101042.28;;;7.44;100.00
41862;BME280;27537;57.134;-2.136;2024-01-27T03:09:11;101047.69;;;7.34;100.00
41862;BME280;27537;57.134;-2.136;2024-01-27T03:11:38;101037.75;;;7.53;100.00
41862;BME280;27537;57.134;-2.136;2024-01-27T03:14:05;101036.13;;;7.49;100.00
41862;BME280;27537;57.134;-2.136;2024-01-27T03:16:31;101029.00;;;7.57;100.00
41862;BME280;27537;57.134;-2.136;2024-01-27T03:18:59;101020.66;;;7.40;100.00
41862;BME280;27537;57.134;-2.136;2024-01-27T03:21:26;101026.09;;;7.28;100.00
41862;BME280;27537;57.134;-2.136;2024-01-27T03:23:52;101032.97;;;7.32;100.00
41862;BME280;27537;57.134;-2.136;2024-01-27T03:26:19;101030.44;;;7.29;100.00
41862;BME280;27537;57.134;-2.136;2024-01-27T03:28:46;101026.25;;;7.20;100.00
41862;BME280;27537;57.134;-2.136;2024-01-27T03:31:13;101023.44;;;7.31;100.00
41862;BME280;27537;57.134;-2.136;2024-01-27T03:33:39;101029.34;;;7.40;100.00
41862;BME280;27537;57.134;-2.136;2024-01-27T03:36:13;101022.34;;;7.43;100.00
41862;BME280;27537;57.134;-2.136;2024-01-27T03:38:41;101022.69;;;7.24;100.00
41862;BME280;27537;57.134;-2.136;2024-01-27T03:41:07;101030.59;;;7.21;100.00
41862;BME280;27537;57.134;-2.136;2024-01-27T03:43:34;101033.91;;;7.28;100.00
41862;BME280;27537;57.134;-2.136;2024-01-27T03:46:01;101007.81;;;7.31;100.00
41862;BME280;27537;57.134;-2.136;2024-01-27T03:48:27;101029.41;;;7.37;100.00
41862;BME280;27537;57.134;-2.136;2024-01-27T03:50:54;101021.53;;;7.40;100.00
41862;BME280;27537;57.134;-2.136;2024-01-27T03:53:21;101022.16;;;7.52;100.00
41862;BME280;27537;57.134;-2.136;2024-01-27T03:55:48;101029.34;;;7.40;100.00
41862;BME280;27537;57.134;-2.136;2024-01-27T03:58:14;101029.97;;;7.52;100.00
41862;BME280;27537;57.134;-2.136;2024-01-27T04:00:41;101029.44;;;7.36;100.00
41862;BME280;27537;57.134;-2.136;2024-01-27T04:03:11;101023.25;;;7.40;100.00
41862;BME280;27537;57.134;-2.136;2024-01-27T04:05:38;101007.56;;;7.43;100.00
41862;BME280;27537;57.134;-2.136;2024-01-27T04:08:05;101021.38;;;7.48;100.00
41862;BME280;27537;57.134;-2.136;2024-01-27T04:10:33;101007.50;;;7.46;100.00
41862;BME280;27537;57.134;-2.136;2024-01-27T04:13:00;101012.91;;;7.37;100.00
41862;BME280;27537;57.134;-2.136;2024-01-27T04:15:27;101022.06;;;7.56;100.00
41862;BME280;27537;57.134;-2.136;2024-01-27T04:17:54;101018.28;;;7.71;100.00
41862;BME280;27537;57.134;-2.136;2024-01-27T04:20:21;101011.97;;;7.83;100.00
41862;BME280;27537;57.134;-2.136;2024-01-27T04:22:48;101014.97;;;7.63;100.00
41862;BME280;27537;57.134;-2.136;2024-01-27T04:25:14;101004.28;;;7.75;100.00
41862;BME280;27537;57.134;-2.136;2024-01-27T04:27:41;101004.50;;;7.65;100.00
41862;BME280;27537;57.134;-2.136;2024-01-27T04:30:11;100994.22;;;7.60;100.00
41862;BME280;27537;57.134;-2.136;2024-01-27T04:32:38;100989.03;;;7.58;100.00
41862;BME280;27537;57.134;-2.136;2024-01-27T04:35:08;100998.63;;;7.56;100.00
41862;BME280;27537;57.134;-2.136;2024-01-27T04:37:36;100995.78;;;7.67;100.00
41862;BME280;27537;57.134;-2.136;2024-01-27T04:40:06;101004.47;;;7.66;100.00
41862;BME280;27537;57.134;-2.136;2024-01-27T04:42:34;101003.22;;;7.44;100.00
41862;BME280;27537;57.134;-2.136;2024-01-27T04:45:01;101020.50;;;7.49;100.00
41862;BME280;27537;57.134;-2.136;2024-01-27T04:47:28;101005.53;;;7.57;100.00
41862;BME280;27537;57.134;-2.136;2024-01-27T04:49:55;101022.06;;;7.56;100.00
41862;BME280;27537;57.134;-2.136;2024-01-27T04:52:22;101009.94;;;7.55;100.00
41862;BME280;27537;57.134;-2.136;2024-01-27T04:54:48;101005.66;;;7.53;100.00
41862;BME280;27537;57.134;-2.136;2024-01-27T04:57:15;101007.25;;;7.60;100.00
41862;BME280;27537;57.134;-2.136;2024-01-27T04:59:42;101019.81;;;7.82;100.00
41862;BME280;27537;57.134;-2.136;2024-01-27T05:02:10;101012.22;;;7.71;100.00
41862;BME280;27537;57.134;-2.136;2024-01-27T05:04:37;101006.16;;;7.70;100.00
41862;BME280;27537;57.134;-2.136;2024-01-27T05:07:04;101001.81;;;7.69;100.00
41862;BME280;27537;57.134;-2.136;2024-01-27T05:09:31;101004.47;;;7.66;100.00
41862;BME280;27537;57.134;-2.136;2024-01-27T05:12:00;100996.63;;;7.69;100.00
41862;BME280;27537;57.134;-2.136;2024-01-27T05:14:27;101005.16;;;7.76;100.00
41862;BME280;27537;57.134;-2.136;2024-01-27T05:16:53;100998.09;;;7.81;100.00
41862;BME280;27537;57.134;-2.136;2024-01-27T05:19:21;100996.47;;;7.75;100.00
41862;BME280;27537;57.134;-2.136;2024-01-27T05:21:48;100999.03;;;7.77;100.00
41862;BME280;27537;57.134;-2.136;2024-01-27T05:24:14;100986.19;;;7.69;100.00
41862;BME280;27537;57.134;-2.136;2024-01-27T05:26:41;100984.63;;;7.60;100.00
41862;BME280;27537;57.134;-2.136;2024-01-27T05:29:08;100993.22;;;7.66;100.00
41862;BME280;27537;57.134;-2.136;2024-01-27T05:31:35;100998.28;;;7.72;100.00
41862;BME280;27537;57.134;-2.136;2024-01-27T05:34:01;100986.09;;;7.74;100.00
41862;BME280;27537;57.134;-2.136;2024-01-27T05:36:28;101000.59;;;7.86;100.00
41862;BME280;27537;57.134;-2.136;2024-01-27T05:38:55;100972.34;;;7.67;100.00
41862;BME280;27537;57.134;-2.136;2024-01-27T05:41:26;100968.97;;;7.62;100.00
41862;BME280;27537;57.134;-2.136;2024-01-27T05:43:52;100986.00;;;7.77;100.00
41862;BME280;27537;57.134;-2.136;2024-01-27T05:46:19;100966.38;;;7.62;100.00
41862;BME280;27537;57.134;-2.136;2024-01-27T05:48:46;100972.38;;;7.66;100.00
41862;BME280;27537;57.134;-2.136;2024-01-27T05:51:13;100977.31;;;7.78;100.00
41862;BME280;27537;57.134;-2.136;2024-01-27T05:53:40;100961.16;;;7.62;100.00
41862;BME280;27537;57.134;-2.136;2024-01-27T05:56:06;100963.13;;;7.51;100.00
41862;BME280;27537;57.134;-2.136;2024-01-27T05:58:33;100973.59;;;7.49;100.00
41862;BME280;27537;57.134;-2.136;2024-01-27T06:00:59;100973.47;;;7.54;100.00
41862;BME280;27537;57.134;-2.136;2024-01-27T06:03:26;100993.31;;;7.59;100.00
41862;BME280;27537;57.134;-2.136;2024-01-27T06:05:53;100999.22;;;7.69;100.00
41862;BME280;27537;57.134;-2.136;2024-01-27T06:08:20;101005.41;;;7.65;100.00
41862;BME280;27537;57.134;-2.136;2024-01-27T06:10:47;100984.44;;;7.70;100.00
41862;BME280;27537;57.134;-2.136;2024-01-27T06:13:13;100982.09;;;7.56;100.00
41862;BME280;27537;57.134;-2.136;2024-01-27T06:15:40;100983.22;;;7.46;100.00
41862;BME280;27537;57.134;-2.136;2024-01-27T06:18:07;100984.03;;;7.48;100.00
41862;BME280;27537;57.134;-2.136;2024-01-27T06:20:34;100983.19;;;7.47;100.00
41862;BME280;27537;57.134;-2.136;2024-01-27T06:23:00;100990.09;;;7.48;100.00
41862;BME280;27537;57.134;-2.136;2024-01-27T06:25:27;100988.97;;;7.62;100.00
41862;BME280;27537;57.134;-2.136;2024-01-27T06:27:54;100976.97;;;7.54;100.00
41862;BME280;27537;57.134;-2.136;2024-01-27T06:30:21;100985.50;;;7.59;100.00
41862;BME280;27537;57.134;-2.136;2024-01-27T06:32:47;100984.84;;;7.50;100.00
41862;BME280;27537;57.134;-2.136;2024-01-27T06:35:14;100991.91;;;7.45;100.00
41862;BME280;27537;57.134;-2.136;2024-01-27T06:37:41;100991.88;;;7.46;100.00
41862;BME280;27537;57.134;-2.136;2024-01-27T06:40:08;100992.19;;;7.31;100.00
41862;BME280;27537;57.134;-2.136;2024-01-27T06:42:38;100968.53;;;7.41;100.00
41862;BME280;27537;57.134;-2.136;2024-01-27T06:45:05;100964.22;;;7.40;100.00
41862;BME280;27537;57.134;-2.136;2024-01-27T06:47:32;100963.41;;;7.38;100.00
41862;BME280;27537;57.134;-2.136;2024-01-27T06:49:58;100964.88;;;7.49;100.00
41862;BME280;27537;57.134;-2.136;2024-01-27T06:52:25;100976.19;;;7.49;100.00
41862;BME280;27537;57.134;-2.136;2024-01-27T06:54:52;100962.41;;;7.44;100.00
41862;BME280;27537;57.134;-2.136;2024-01-27T06:57:23;100972.78;;;7.47;100.00
41862;BME280;27537;57.134;-2.136;2024-01-27T06:59:51;100971.06;;;7.45;100.00
41862;BME280;27537;57.134;-2.136;2024-01-27T07:02:25;100964.47;;;7.28;100.00
41862;BME280;27537;57.134;-2.136;2024-01-27T07:04:55;100956.59;;;7.31;100.00
41862;BME280;27537;57.134;-2.136;2024-01-27T07:07:25;100953.81;;;7.39;100.00
41862;BME280;27537;57.134;-2.136;2024-01-27T07:09:56;100952.13;;;7.36;100.00
41862;BME280;27537;57.134;-2.136;2024-01-27T07:12:23;100946.22;;;7.30;100.00
41862;BME280;27537;57.134;-2.136;2024-01-27T07:14:50;100957.72;;;7.18;100.00
41862;BME280;27537;57.134;-2.136;2024-01-27T07:17:27;100946.44;;;7.19;100.00
41862;BME280;27537;57.134;-2.136;2024-01-27T07:19:53;100944.19;;;7.43;100.00
41862;BME280;27537;57.134;-2.136;2024-01-27T07:22:22;100949.34;;;7.46;100.00
41862;BME280;27537;57.134;-2.136;2024-01-27T07:24:49;100950.94;;;7.53;100.00
41862;BME280;27537;57.134;-2.136;2024-01-27T07:27:18;100950.81;;;7.57;100.00
41862;BME280;27537;57.134;-2.136;2024-01-27T07:29:45;100935.38;;;7.48;100.00
41862;BME280;27537;57.134;-2.136;2024-01-27T07:32:12;100944.84;;;7.52;100.00
41862;BME280;27537;57.134;-2.136;2024-01-27T07:34:44;100938.28;;;7.34;100.00
41862;BME280;27537;57.134;-2.136;2024-01-27T07:37:11;100938.94;;;7.46;100.00
41862;BME280;27537;57.134;-2.136;2024-01-27T07:39:38;100950.47;;;7.32;100.00
41862;BME280;27537;57.134;-2.136;2024-01-27T07:42:05;100950.25;;;7.43;100.00
41862;BME280;27537;57.134;-2.136;2024-01-27T07:44:32;100958.97;;;7.42;100.00
41862;BME280;27537;57.134;-2.136;2024-01-27T07:46:58;100957.75;;;7.58;100.00
41862;BME280;27537;57.134;-2.136;2024-01-27T07:49:25;100947.22;;;7.63;100.00
41862;BME280;27537;57.134;-2.136;2024-01-27T07:51:52;100957.16;;;7.46;100.00
41862;BME280;27537;57.134;-2.136;2024-01-27T07:54:18;100955.22;;;7.54;100.00
41862;BME280;27537;57.134;-2.136;2024-01-27T07:56:45;100944.13;;;7.46;100.00
41862;BME280;27537;57.134;-2.136;2024-01-27T07:59:11;100949.31;;;7.47;100.00
41862;BME280;27537;57.134;-2.136;2024-01-27T08:01:41;100953.50;;;7.54;100.00
41862;BME280;27537;57.134;-2.136;2024-01-27T08:04:08;100964.66;;;7.59;100.00
41862;BME280;27537;57.134;-2.136;2024-01-27T08:06:46;100936.13;;;7.55;100.00
41862;BME280;27537;57.134;-2.136;2024-01-27T08:09:14;100955.19;;;7.57;100.00
41862;BME280;27537;57.134;-2.136;2024-01-27T08:11:41;100946.41;;;7.59;100.00
41862;BME280;27537;57.134;-2.136;2024-01-27T08:14:07;100952.63;;;7.54;100.00
41862;BME280;27537;57.134;-2.136;2024-01-27T08:16:34;100947.34;;;7.58;100.00
41862;BME280;27537;57.134;-2.136;2024-01-27T08:19:01;100956.66;;;7.69;100.00
41862;BME280;27537;57.134;-2.136;2024-01-27T08:21:28;100963.56;;;7.70;100.00
41862;BME280;27537;57.134;-2.136;2024-01-27T08:23:55;100954.19;;;7.63;100.00
41862;BME280;27537;57.134;-2.136;2024-01-27T08:26:22;100950.25;;;7.84;100.00
41862;BME280;27537;57.134;-2.136;2024-01-27T08:28:48;100934.28;;;7.60;100.00
41862;BME280;27537;57.134;-2.136;2024-01-27T08:31:15;100949.88;;;7.62;100.00
41862;BME280;27537;57.134;-2.136;2024-01-27T08:33:42;100949.66;;;7.71;100.00
41862;BME280;27537;57.134;-2.136;2024-01-27T08:36:13;100947.22;;;7.63;100.00
41862;BME280;27537;57.134;-2.136;2024-01-27T08:38:40;100941.91;;;7.68;100.00
41862;BME280;27537;57.134;-2.136;2024-01-27T08:41:08;100930.16;;;7.50;100.00
41862;BME280;27537;57.134;-2.136;2024-01-27T08:43:34;100933.06;;;7.75;100.00
41862;BME280;27537;57.134;-2.136;2024-01-27T08:46:01;100916.53;;;7.76;100.00
41862;BME280;27537;57.134;-2.136;2024-01-27T08:48:28;100920.88;;;7.75;100.00
41862;BME280;27537;57.134;-2.136;2024-01-27T08:50:55;100921.38;;;7.91;100.00
41862;BME280;27537;57.134;-2.136;2024-01-27T08:53:21;100921.28;;;7.96;100.00
41862;BME280;27537;57.134;-2.136;2024-01-27T08:55:48;100929.44;;;7.80;100.00
41862;BME280;27537;57.134;-2.136;2024-01-27T08:58:15;100929.09;;;7.96;100.00
41862;BME280;27537;57.134;-2.136;2024-01-27T09:00:41;100912.84;;;7.86;100.00
41862;BME280;27537;57.134;-2.136;2024-01-27T09:03:08;100904.63;;;8.02;100.00
41862;BME280;27537;57.134;-2.136;2024-01-27T09:05:35;100896.06;;;7.96;100.00
41862;BME280;27537;57.134;-2.136;2024-01-27T09:08:02;100916.13;;;7.93;100.00
41862;BME280;27537;57.134;-2.136;2024-01-27T09:10:28;100909.25;;;7.90;100.00
41862;BME280;27537;57.134;-2.136;2024-01-27T09:12:55;100914.94;;;8.06;100.00
41862;BME280;27537;57.134;-2.136;2024-01-27T09:15:22;100900.22;;;8.04;100.00
41862;BME280;27537;57.134;-2.136;2024-01-27T09:17:48;100905.44;;;8.04;100.00
41862;BME280;27537;57.134;-2.136;2024-01-27T09:20:15;100895.78;;;8.07;100.00
41862;BME280;27537;57.134;-2.136;2024-01-27T09:22:42;100896.25;;;8.23;100.00
41862;BME280;27537;57.134;-2.136;2024-01-27T09:25:11;100904.38;;;8.11;100.00
41862;BME280;27537;57.134;-2.136;2024-01-27T09:27:38;100893.88;;;8.14;100.00
41862;BME280;27537;57.134;-2.136;2024-01-27T09:30:05;100891.97;;;8.22;100.00
41862;BME280;27537;57.134;-2.136;2024-01-27T09:32:33;100899.28;;;8.42;100.00
41862;BME280;27537;57.134;-2.136;2024-01-27T09:35:00;100899.41;;;8.02;100.00
41862;BME280;27537;57.134;-2.136;2024-01-27T09:37:27;100900.72;;;7.84;100.00
41862;BME280;27537;57.134;-2.136;2024-01-27T09:39:55;100897.63;;;8.04;100.00
41862;BME280;27537;57.134;-2.136;2024-01-27T09:42:21;100928.41;;;8.25;100.00
41862;BME280;27537;57.134;-2.136;2024-01-27T09:44:49;100897.63;;;8.04;100.00
41862;BME280;27537;57.134;-2.136;2024-01-27T09:47:16;100902.13;;;7.98;100.00
41862;BME280;27537;57.134;-2.136;2024-01-27T09:49:43;100897.88;;;8.29;100.00
41862;BME280;27537;57.134;-2.136;2024-01-27T09:52:10;100908.41;;;8.24;100.00
41862;BME280;27537;57.134;-2.136;2024-01-27T09:54:37;100902.38;;;8.22;100.00
41862;BME280;27537;57.134;-2.136;2024-01-27T09:57:04;100901.63;;;8.53;100.00
41862;BME280;27537;57.134;-2.136;2024-01-27T09:59:33;100890.22;;;8.21;100.00
41862;BME280;27537;57.134;-2.136;2024-01-27T10:02:00;100908.84;;;8.43;100.00
41862;BME280;27537;57.134;-2.136;2024-01-27T10:04:28;100903.84;;;8.34;100.00
41862;BME280;27537;57.134;-2.136;2024-01-27T10:06:57;100918.88;;;8.23;100.00
41862;BME280;27537;57.134;-2.136;2024-01-27T10:09:24;100915.09;;;8.36;100.00
41862;BME280;27537;57.134;-2.136;2024-01-27T10:11:52;100908.13;;;8.36;100.00
41862;BME280;27537;57.134;-2.136;2024-01-27T10:14:20;100911.69;;;8.32;100.00
41862;BME280;27537;57.134;-2.136;2024-01-27T10:16:47;100921.78;;;8.46;100.00
41862;BME280;27537;57.134;-2.136;2024-01-27T10:19:15;100927.63;;;8.58;100.00
41862;BME280;27537;57.134;-2.136;2024-01-27T10:21:47;100925.22;;;8.50;100.00
41862;BME280;27537;57.134;-2.136;2024-01-27T10:24:14;100927.56;;;8.59;100.00
41862;BME280;27537;57.134;-2.136;2024-01-27T10:26:41;100919.19;;;8.46;100.00
41862;BME280;27537;57.134;-2.136;2024-01-27T10:29:08;100915.59;;;8.52;100.00
41862;BME280;27537;57.134;-2.136;2024-01-27T10:31:36;100945.53;;;8.71;100.00
41862;BME280;27537;57.134;-2.136;2024-01-27T10:34:03;100961.63;;;8.87;100.00
41862;BME280;27537;57.134;-2.136;2024-01-27T10:36:41;100954.97;;;8.76;100.00
41862;BME280;27537;57.134;-2.136;2024-01-27T10:39:20;100954.25;;;8.70;100.00
41862;BME280;27537;57.134;-2.136;2024-01-27T10:41:47;100951.22;;;8.86;100.00
41862;BME280;27537;57.134;-2.136;2024-01-27T10:44:17;100944.91;;;8.95;100.00
41862;BME280;27537;57.134;-2.136;2024-01-27T10:46:45;100960.09;;;8.80;100.00
41862;BME280;27537;57.134;-2.136;2024-01-27T10:49:15;100967.72;;;8.88;100.00
41862;BME280;27537;57.134;-2.136;2024-01-27T10:51:44;100971.72;;;9.01;100.00
41862;BME280;27537;57.134;-2.136;2024-01-27T10:54:18;100979.25;;;8.79;100.00
41862;BME280;27537;57.134;-2.136;2024-01-27T10:56:51;100985.00;;;8.92;100.00
41862;BME280;27537;57.134;-2.136;2024-01-27T10:59:21;100993.16;;;9.12;100.00
41862;BME280;27537;57.134;-2.136;2024-01-27T11:01:49;100988.09;;;9.06;100.00
41862;BME280;27537;57.134;-2.136;2024-01-27T11:04:20;101002.66;;;9.15;100.00
41862;BME280;27537;57.134;-2.136;2024-01-27T11:06:48;101012.47;;;9.07;100.00
41862;BME280;27537;57.134;-2.136;2024-01-27T11:09:17;101018.50;;;9.09;100.00
41862;BME280;27537;57.134;-2.136;2024-01-27T11:11:46;101000.38;;;9.03;100.00
41862;BME280;27537;57.134;-2.136;2024-01-27T11:14:13;100991.22;;;9.21;100.00
41862;BME280;27537;57.134;-2.136;2024-01-27T11:16:40;100996.66;;;9.43;100.00
41862;BME280;27537;57.134;-2.136;2024-01-27T11:19:11;101011.03;;;9.28;100.00
41862;BME280;27537;57.134;-2.136;2024-01-27T11:21:39;101011.63;;;9.38;100.00
41862;BME280;27537;57.134;-2.136;2024-01-27T11:24:16;101019.03;;;9.53;100.00
41862;BME280;27537;57.134;-2.136;2024-01-27T11:26:43;100997.28;;;9.21;100.00
41862;BME280;27537;57.134;-2.136;2024-01-27T11:29:10;101025.31;;;9.47;100.00
41862;BME280;27537;57.134;-2.136;2024-01-27T11:31:46;101019.59;;;9.33;100.00
41862;BME280;27537;57.134;-2.136;2024-01-27T11:34:12;101023.44;;;9.51;100.00
41862;BME280;27537;57.134;-2.136;2024-01-27T11:36:43;101009.41;;;9.54;100.00
41862;BME280;27537;57.134;-2.136;2024-01-27T11:39:26;101012.31;;;9.44;100.00
41862;BME280;27537;57.134;-2.136;2024-01-27T11:42:04;101017.50;;;9.46;100.00
41862;BME280;27537;57.134;-2.136;2024-01-27T11:44:35;101011.38;;;9.45;100.00
41862;BME280;27537;57.134;-2.136;2024-01-27T11:47:03;101023.53;;;9.48;100.00
41862;BME280;27537;57.134;-2.136;2024-01-27T11:49:29;101013.97;;;9.47;100.00
41862;BME280;27537;57.134;-2.136;2024-01-27T11:51:56;101010.97;;;9.29;100.00
41862;BME280;27537;57.134;-2.136;2024-01-27T11:54:23;101014.56;;;9.25;100.00
41862;BME280;27537;57.134;-2.136;2024-01-27T11:56:50;101023.06;;;9.34;100.00
41862;BME280;27537;57.134;-2.136;2024-01-27T11:59:17;101029.69;;;9.45;100.00
41862;BME280;27537;57.134;-2.136;2024-01-27T12:01:44;101030.47;;;9.49;100.00
41862;BME280;27537;57.134;-2.136;2024-01-27T12:04:11;101028.44;;;9.27;100.00
41862;BME280;27537;57.134;-2.136;2024-01-27T12:06:40;101052.09;;;9.54;100.00
41862;BME280;27537;57.134;-2.136;2024-01-27T12:09:07;101043.41;;;9.54;100.00
41862;BME280;27537;57.134;-2.136;2024-01-27T12:11:38;101040.13;;;9.45;100.00
41862;BME280;27537;57.134;-2.136;2024-01-27T12:14:08;101053.47;;;9.67;100.00
41862;BME280;27537;57.134;-2.136;2024-01-27T12:16:34;101055.00;;;9.75;100.00
41862;BME280;27537;57.134;-2.136;2024-01-27T12:19:02;101045.53;;;10.00;100.00
41862;BME280;27537;57.134;-2.136;2024-01-27T12:21:29;101050.16;;;9.92;100.00
41862;BME280;27537;57.134;-2.136;2024-01-27T12:23:57;101031.97;;;9.87;100.00
41862;BME280;27537;57.134;-2.136;2024-01-27T12:26:28;101032.84;;;9.88;100.00
41862;BME280;27537;57.134;-2.136;2024-01-27T12:28:55;101016.31;;;9.86;100.00
41862;BME280;27537;57.134;-2.136;2024-01-27T12:31:23;101029.75;;;9.74;100.00
41862;BME280;27537;57.134;-2.136;2024-01-27T12:33:52;101031.25;;;10.11;100.00
41862;BME280;27537;57.134;-2.136;2024-01-27T12:36:20;101026.78;;;10.14;100.00
41862;BME280;27537;57.134;-2.136;2024-01-27T12:38:53;101027.28;;;10.27;100.00
41862;BME280;27537;57.134;-2.136;2024-01-27T12:41:20;101023.06;;;10.21;100.00